createdAt,value
2023-04-02T00:12:30.868Z,98027.69
2023-04-02T00:32:32.760Z,98027.38
2023-04-02T00:52:34.274Z,98036.16
2023-04-02T01:12:35.873Z,98018.72
2023-04-02T01:32:37.623Z,98022.03
2023-04-02T01:52:39.250Z,98016.53
2023-04-02T02:12:41.551Z,98010.66
2023-04-02T02:32:44.081Z,98013.88
2023-04-02T02:52:45.799Z,98030.13
2023-04-02T03:12:49.261Z,98041.25
2023-04-02T03:32:51.254Z,98052.59
2023-04-02T03:52:53.136Z,98067.16
2023-04-02T04:12:54.871Z,98089.72
2023-04-02T04:32:58.861Z,98128.59
2023-04-02T04:53:01.646Z,98139.66
2023-04-02T05:13:03.590Z,98156.25
2023-04-02T05:33:05.513Z,98165.00
2023-04-02T05:53:07.428Z,98167.66
2023-04-02T06:13:10.720Z,98183.63
2023-04-02T06:33:15.851Z,98213.78
2023-04-02T06:53:20.397Z,98229.34
2023-04-02T07:13:22.809Z,98256.78
2023-04-02T07:33:24.817Z,98267.41
2023-04-02T07:53:26.454Z,98299.56
2023-04-02T08:54:52.822Z,98349.94
2023-04-02T09:15:13.002Z,98353.16
2023-04-02T10:16:58.297Z,98408.72
2023-04-02T10:37:17.464Z,98414.53
2023-04-02T11:59:33.725Z,98467.22
2023-04-02T12:19:35.277Z,98500.69
2023-04-02T12:39:36.914Z,98507.59
2023-04-02T12:59:40.110Z,98519.38
2023-04-02T13:19:41.588Z,98532.94
2023-04-02T13:39:43.419Z,98549.13
2023-04-02T13:59:52.129Z,98564.81
2023-04-02T14:40:39.973Z,98629.66
2023-04-02T15:00:42.365Z,98644.72
2023-04-02T15:20:48.361Z,98672.03
2023-04-02T15:40:49.925Z,98708.13
2023-04-02T16:00:52.941Z,98756.00
2023-04-02T16:20:54.478Z,98784.25
2023-04-02T16:41:06.916Z,98828.97
2023-04-02T17:01:10.071Z,98848.78
2023-04-02T17:21:11.760Z,98897.41
2023-04-02T17:41:13.621Z,98943.41
2023-04-02T18:01:15.279Z,98982.72
2023-04-02T18:21:19.325Z,99030.16
2023-04-02T18:41:22.335Z,99056.97
2023-04-02T19:01:24.118Z,99095.47
2023-04-02T19:21:25.971Z,99133.75
2023-04-02T19:41:27.530Z,99151.25
2023-04-02T20:01:29.171Z,99165.75
2023-04-02T20:21:30.791Z,99174.31
2023-04-02T20:41:32.387Z,99188.34
2023-04-02T21:01:34.099Z,99214.00
2023-04-02T21:21:41.208Z,99221.47
2023-04-02T21:41:42.927Z,99205.78
2023-04-02T22:01:44.421Z,99215.38
2023-04-02T22:21:46.060Z,99211.41
2023-04-02T22:41:47.714Z,99235.81
2023-04-02T23:01:49.195Z,99232.75
2023-04-02T23:21:50.879Z,99212.97
2023-04-02T23:41:52.314Z,99220.72
